Time,TemperatureF,DewpointF,PressureIn,WindDirection,WindDirectionDegrees,WindSpeedMPH,WindSpeedGustMPH,Humidity,HourlyPrecipIn,Conditions,Clouds,dailyrainin,SolarRadiationWatts/m^2,SoftwareType,DateUTC
2013-12-26 00:00:00,35.5,33.4,29.13,SSW,192,2.0,3.0,92,0.00,,,0.00,0,WeatherCatV1.15B25,2013-12-26 00:00:00,
2013-12-26 00:05:00,35.1,33.0,29.13,South,179,3.0,4.0,92,0.00,,,0.00,0,WeatherCatV1.15B25,2013-12-26 00:05:00,
2013-12-26 00:10:00,34.8,33.0,29.13,SSE,161,3.0,6.0,93,0.00,,,0.00,0,WeatherCatV1.15B25,2013-12-26 00:10:00,
2013-12-26 00:15:00,34.7,32.9,29.13,SSE,155,4.0,6.0,93,0.00,,,0.00,0,WeatherCatV1.15B25,2013-12-26 00:15:00,
2013-12-26 00:20:00,34.7,32.9,29.14,SSE,157,3.0,5.0,93,0.00,,,0.00,0,WeatherCatV1.15B25,2013-12-26 00:20:00,
2013-12-26 00:25:00,34.6,33.1,29.14,SSE,158,2.0,5.0,94,0.00,,,0.00,0,WeatherCatV1.15B25,2013-12-26 00:25:00,
2013-12-26 00:30:00,34.5,32.7,29.14,SE,143,3.0,6.0,93,0.00,,,0.00,0,WeatherCatV1.15B25,2013-12-26 00:30:00,
2013-12-26 00:35:00,34.4,32.6,29.14,SE,137,4.0,6.0,93,0.00,,,0.00,0,WeatherCatV1.15B25,2013-12-26 00:35:00,
2013-12-26 00:40:00,34.4,32.9,29.14,SE,132,5.0,6.0,94,0.00,,,0.00,0,WeatherCatV1.15B25,2013-12-26 00:40:00,
2013-12-26 00:45:00,34.4,32.9,29.14,SE,129,4.0,4.0,94,0.00,,,0.00,0,WeatherCatV1.15B25,2013-12-26 00:45:00,
2013-12-26 00:50:00,34.3,32.8,29.14,SE,129,2.0,5.0,94,0.00,,,0.00,0,WeatherCatV1.15B25,2013-12-26 00:50:00,
2013-12-26 00:55:00,34.2,32.7,29.14,SE,129,2.0,5.0,94,0.00,,,0.00,0,WeatherCatV1.15B25,2013-12-26 00:55:00,
2013-12-26 01:00:00,34.2,32.7,29.14,SE,139,3.0,7.0,94,0.00,,,0.00,0,WeatherCatV1.15B25,2013-12-26 01:00:00,
2013-12-26 01:05:00,34.2,32.7,29.15,SSE,148,4.0,7.0,94,0.00,,,0.00,0,WeatherCatV1.15B25,2013-12-26 01:05:00,
2013-12-26 01:10:00,34.4,33.1,29.15,SSE,155,4.0,5.0,95,0.00,,,0.00,0,WeatherCatV1.15B25,2013-12-26 01:10:00,
2013-12-26 01:15:00,34.5,33.0,29.15,SSE,163,3.0,6.0,94,0.00,,,0.00,0,WeatherCatV1.15B25,2013-12-26 01:15:00,
2013-12-26 01:20:00,34.6,33.1,29.15,SSE,165,3.0,5.0,94,0.00,,,0.00,0,WeatherCatV1.15B25,2013-12-26 01:20:00,
2013-12-26 01:25:00,34.8,33.3,29.15,SSE,166,3.0,6.0,94,0.00,,,0.00,0,WeatherCatV1.15B25,2013-12-26 01:25:00,
2013-12-26 01:30:00,34.7,33.2,29.15,SSE,167,4.0,7.0,94,0.00,,,0.00,0,WeatherCatV1.15B25,2013-12-26 01:30:00,
2013-12-26 01:35:00,34.7,33.2,29.15,SSE,162,7.0,12.0,94,0.00,,,0.00,0,WeatherCatV1.15B25,2013-12-26 01:35:00,
2013-12-26 01:40:00,35.0,33.7,29.15,SSE,165,8.0,9.0,95,0.00,,,0.00,0,WeatherCatV1.15B25,2013-12-26 01:40:00,
2013-12-26 01:45:00,35.3,33.7,29.15,SSE,162,8.0,9.0,94,0.00,,,0.00,0,WeatherCatV1.15B25,2013-12-26 01:45:00,
2013-12-26 01:50:00,35.5,33.9,29.16,SSE,164,7.0,7.0,94,0.00,,,0.00,0,WeatherCatV1.15B25,2013-12-26 01:50:00,
2013-12-26 01:55:00,35.5,33.9,29.16,South,179,5.0,8.0,94,0.00,,,0.00,0,WeatherCatV1.15B25,2013-12-26 01:55:00,
2013-12-26 02:00:00,35.5,33.9,29.16,South,184,4.0,6.0,94,0.00,,,0.00,0,WeatherCatV1.15B25,2013-12-26 02:00:00,
2013-12-26 02:05:00,35.4,33.8,29.16,South,191,4.0,6.0,94,0.00,,,0.00,0,WeatherCatV1.15B25,2013-12-26 02:05:00,
2013-12-26 02:10:00,35.4,33.8,29.16,South,191,4.0,7.0,94,0.00,,,0.00,0,WeatherCatV1.15B25,2013-12-26 02:10:00,
2013-12-26 02:15:00,35.5,33.9,29.16,SSW,193,4.0,9.0,94,0.00,,,0.00,0,WeatherCatV1.15B25,2013-12-26 02:15:00,
2013-12-26 02:20:00,35.5,33.9,29.17,South,184,5.0,8.0,94,0.00,,,0.00,0,WeatherCatV1.15B25,2013-12-26 02:20:00,
2013-12-26 02:25:00,35.5,33.9,29.17,South,186,6.0,9.0,94,0.00,,,0.00,0,WeatherCatV1.15B25,2013-12-26 02:25:00,
2013-12-26 02:30:00,35.5,33.9,29.17,SSW,197,5.0,7.0,94,0.00,,,0.00,0,WeatherCatV1.15B25,2013-12-26 02:30:00,
2013-12-26 02:35:00,35.6,34.0,29.17,SSW,200,5.0,7.0,94,0.00,,,0.00,0,WeatherCatV1.15B25,2013-12-26 02:35:00,
2013-12-26 02:40:00,35.7,34.1,29.17,SSW,197,5.0,10.0,94,0.00,,,0.00,0,WeatherCatV1.15B25,2013-12-26 02:40:00,
2013-12-26 02:45:00,35.9,34.3,29.17,SSW,197,5.0,8.0,94,0.00,,,0.00,0,WeatherCatV1.15B25,2013-12-26 02:45:00,
2013-12-26 02:50:00,36.0,34.4,29.18,SSW,203,5.0,7.0,94,0.00,,,0.00,0,WeatherCatV1.15B25,2013-12-26 02:50:00,
2013-12-26 02:55:00,36.0,34.4,29.18,SSW,204,4.0,6.0,94,0.00,,,0.00,0,WeatherCatV1.15B25,2013-12-26 02:55:00,
2013-12-26 03:00:00,35.9,34.1,29.18,SSW,205,4.0,6.0,93,0.00,,,0.00,0,WeatherCatV1.15B25,2013-12-26 03:00:00,
2013-12-26 03:05:00,35.9,34.1,29.18,SSW,200,4.0,6.0,93,0.00,,,0.00,0,WeatherCatV1.15B25,2013-12-26 03:05:00,
2013-12-26 03:10:00,35.8,34.0,29.18,South,180,4.0,6.0,93,0.00,,,0.00,0,WeatherCatV1.15B25,2013-12-26 03:10:00,
2013-12-26 03:15:00,35.7,33.9,29.18,South,178,4.0,8.0,93,0.00,,,0.00,0,WeatherCatV1.15B25,2013-12-26 03:15:00,
2013-12-26 03:20:00,35.7,33.9,29.18,South,179,5.0,9.0,93,0.00,,,0.00,0,WeatherCatV1.15B25,2013-12-26 03:20:00,
2013-12-26 03:25:00,35.7,33.9,29.19,South,189,4.0,6.0,93,0.00,,,0.00,0,WeatherCatV1.15B25,2013-12-26 03:25:00,
2013-12-26 03:30:00,35.9,34.1,29.19,SSW,198,3.0,6.0,93,0.00,,,0.00,0,WeatherCatV1.15B25,2013-12-26 03:30:00,
2013-12-26 03:35:00,36.1,34.5,29.19,South,185,4.0,7.0,94,0.00,,,0.00,0,WeatherCatV1.15B25,2013-12-26 03:35:00,
2013-12-26 03:40:00,36.1,34.5,29.19,South,185,4.0,7.0,94,0.00,,,0.00,0,WeatherCatV1.15B25,2013-12-26 03:40:00,
2013-12-26 03:45:00,36.1,34.5,29.20,South,189,3.0,4.0,94,0.00,,,0.00,0,WeatherCatV1.15B25,2013-12-26 03:45:00,
2013-12-26 03:50:00,36.1,34.5,29.20,South,190,3.0,5.0,94,0.00,,,0.00,0,WeatherCatV1.15B25,2013-12-26 03:50:00,
2013-12-26 03:55:00,36.1,34.5,29.20,South,191,2.0,4.0,94,0.00,,,0.00,0,WeatherCatV1.15B25,2013-12-26 03:55:00,
2013-12-26 04:00:00,36.0,34.4,29.20,SSE,155,2.0,6.0,94,0.00,,,0.00,0,WeatherCatV1.15B25,2013-12-26 04:00:00,
2013-12-26 04:05:00,35.9,34.1,29.20,SSE,151,3.0,5.0,93,0.00,,,0.00,0,WeatherCatV1.15B25,2013-12-26 04:05:00,
2013-12-26 04:10:00,35.8,34.2,29.20,SSE,161,4.0,6.0,94,0.00,,,0.00,0,WeatherCatV1.15B25,2013-12-26 04:10:00,
2013-12-26 04:15:00,35.8,34.2,29.20,SSE,160,4.0,7.0,94,0.00,,,0.00,0,WeatherCatV1.15B25,2013-12-26 04:15:00,
2013-12-26 04:20:00,35.6,34.0,29.20,SSE,165,5.0,7.0,94,0.00,,,0.00,0,WeatherCatV1.15B25,2013-12-26 04:20:00,
2013-12-26 04:25:00,35.5,33.9,29.21,SSE,163,5.0,8.0,94,0.00,,,0.00,0,WeatherCatV1.15B25,2013-12-26 04:25:00,
2013-12-26 04:30:00,35.5,33.9,29.20,SSE,161,5.0,7.0,94,0.00,,,0.00,0,WeatherCatV1.15B25,2013-12-26 04:30:00,
2013-12-26 04:35:00,35.3,33.7,29.20,SSE,164,5.0,7.0,94,0.00,,,0.00,0,WeatherCatV1.15B25,2013-12-26 04:35:00,
2013-12-26 04:40:00,35.2,33.6,29.21,South,170,4.0,6.0,94,0.00,,,0.00,0,WeatherCatV1.15B25,2013-12-26 04:40:00,
2013-12-26 04:45:00,35.0,33.5,29.21,SSE,168,4.0,6.0,94,0.00,,,0.00,0,WeatherCatV1.15B25,2013-12-26 04:45:00,
2013-12-26 04:50:00,34.8,33.3,29.21,SSE,165,4.0,6.0,94,0.00,,,0.00,0,WeatherCatV1.15B25,2013-12-26 04:50:00,
2013-12-26 04:55:00,34.6,33.1,29.21,SSE,161,4.0,6.0,94,0.00,,,0.00,0,WeatherCatV1.15B25,2013-12-26 04:55:00,
2013-12-26 05:00:00,34.5,33.0,29.21,SSE,162,5.0,7.0,94,0.00,,,0.00,0,WeatherCatV1.15B25,2013-12-26 05:00:00,
2013-12-26 05:05:00,34.4,32.9,29.21,South,180,4.0,7.0,94,0.00,,,0.00,0,WeatherCatV1.15B25,2013-12-26 05:05:00,
2013-12-26 05:10:00,34.4,32.9,29.21,South,180,4.0,7.0,94,0.00,,,0.00,0,WeatherCatV1.15B25,2013-12-26 05:10:00,
2013-12-26 05:15:00,34.4,32.9,29.21,South,173,4.0,7.0,94,0.00,,,0.00,0,WeatherCatV1.15B25,2013-12-26 05:15:00,
2013-12-26 05:20:00,34.2,32.7,29.22,South,176,4.0,5.0,94,0.00,,,0.00,0,WeatherCatV1.15B25,2013-12-26 05:20:00,
2013-12-26 05:25:00,34.0,32.5,29.22,South,172,4.0,7.0,94,0.00,,,0.00,0,WeatherCatV1.15B25,2013-12-26 05:25:00,
2013-12-26 05:30:00,33.9,32.4,29.22,South,172,4.0,5.0,94,0.00,,,0.00,0,WeatherCatV1.15B25,2013-12-26 05:30:00,
2013-12-26 05:35:00,33.9,32.4,29.22,South,172,4.0,6.0,94,0.00,,,0.00,0,WeatherCatV1.15B25,2013-12-26 05:35:00,
2013-12-26 05:40:00,33.8,32.5,29.22,South,174,5.0,8.0,95,0.00,,,0.00,0,WeatherCatV1.15B25,2013-12-26 05:40:00,
2013-12-26 05:45:00,33.7,32.4,29.22,SSE,164,5.0,6.0,95,0.00,,,0.00,0,WeatherCatV1.15B25,2013-12-26 05:45:00,
2013-12-26 05:50:00,33.5,32.2,29.22,SSE,160,5.0,6.0,95,0.00,,,0.00,0,WeatherCatV1.15B25,2013-12-26 05:50:00,
2013-12-26 05:55:00,33.5,32.2,29.23,SSE,166,5.0,7.0,95,0.00,,,0.00,0,WeatherCatV1.15B25,2013-12-26 05:55:00,
2013-12-26 06:00:00,33.4,32.1,29.23,SSE,163,5.0,7.0,95,0.00,,,0.00,0,WeatherCatV1.15B25,2013-12-26 06:00:00,
2013-12-26 06:05:00,33.3,32.0,29.23,SSE,153,5.0,8.0,95,0.00,,,0.00,0,WeatherCatV1.15B25,2013-12-26 06:05:00,
2013-12-26 06:10:00,33.2,31.9,29.23,SE,144,5.0,8.0,95,0.00,,,0.00,0,WeatherCatV1.15B25,2013-12-26 06:10:00,
2013-12-26 06:15:00,33.2,31.9,29.24,SSE,148,5.0,8.0,95,0.00,,,0.00,0,WeatherCatV1.15B25,2013-12-26 06:15:00,
2013-12-26 06:20:00,33.1,31.8,29.24,SSE,151,5.0,8.0,95,0.00,,,0.00,0,WeatherCatV1.15B25,2013-12-26 06:20:00,
2013-12-26 06:25:00,33.1,31.8,29.24,SSE,151,5.0,7.0,95,0.00,,,0.00,0,WeatherCatV1.15B25,2013-12-26 06:25:00,
2013-12-26 06:30:00,33.2,31.9,29.24,SSE,156,5.0,9.0,95,0.00,,,0.00,0,WeatherCatV1.15B25,2013-12-26 06:30:00,
2013-12-26 06:35:00,33.3,32.0,29.24,SSE,161,6.0,9.0,95,0.00,,,0.00,0,WeatherCatV1.15B25,2013-12-26 06:35:00,
2013-12-26 06:40:00,33.4,32.1,29.25,SSE,162,7.0,9.0,95,0.00,,,0.00,0,WeatherCatV1.15B25,2013-12-26 06:40:00,
2013-12-26 06:45:00,33.5,32.2,29.25,South,171,7.0,8.0,95,0.00,,,0.00,0,WeatherCatV1.15B25,2013-12-26 06:45:00,
2013-12-26 06:50:00,33.7,32.7,29.25,South,171,6.0,10.0,96,0.00,,,0.00,0,WeatherCatV1.15B25,2013-12-26 06:50:00,
2013-12-26 06:55:00,33.8,32.8,29.25,SSE,167,7.0,10.0,96,0.00,,,0.00,0,WeatherCatV1.15B25,2013-12-26 06:55:00,
2013-12-26 07:00:00,33.9,32.9,29.25,SSE,165,7.0,10.0,96,0.00,,,0.00,0,WeatherCatV1.15B25,2013-12-26 07:00:00,
2013-12-26 07:05:00,33.9,32.6,29.25,SSE,158,6.0,10.0,95,0.00,,,0.00,0,WeatherCatV1.15B25,2013-12-26 07:05:00,
2013-12-26 07:10:00,33.8,32.5,29.26,SSE,157,6.0,10.0,95,0.00,,,0.00,0,WeatherCatV1.15B25,2013-12-26 07:10:00,
2013-12-26 07:15:00,33.9,32.6,29.26,SSE,155,6.0,8.0,95,0.00,,,0.00,0,WeatherCatV1.15B25,2013-12-26 07:15:00,
2013-12-26 07:20:00,33.9,32.6,29.26,SSE,155,6.0,10.0,95,0.00,,,0.00,0,WeatherCatV1.15B25,2013-12-26 07:20:00,
2013-12-26 07:25:00,33.8,32.5,29.26,SSE,158,6.0,7.0,95,0.00,,,0.00,0,WeatherCatV1.15B25,2013-12-26 07:25:00,
2013-12-26 07:30:00,33.7,32.4,29.26,SSE,157,6.0,7.0,95,0.00,,,0.00,0,WeatherCatV1.15B25,2013-12-26 07:30:00,
2013-12-26 07:35:00,33.5,32.2,29.27,SSE,155,4.0,8.0,95,0.00,,,0.00,0,WeatherCatV1.15B25,2013-12-26 07:35:00,
2013-12-26 07:40:00,33.5,32.2,29.27,SSE,159,4.0,5.0,95,0.00,,,0.00,0,WeatherCatV1.15B25,2013-12-26 07:40:00,
2013-12-26 07:45:00,33.5,32.2,29.27,SSE,167,4.0,7.0,95,0.00,,,0.00,0,WeatherCatV1.15B25,2013-12-26 07:45:00,
2013-12-26 07:50:00,33.5,32.2,29.27,South,169,4.0,5.0,95,0.00,,,0.00,0,WeatherCatV1.15B25,2013-12-26 07:50:00,
2013-12-26 07:55:00,33.4,32.1,29.27,SSW,197,4.0,5.0,95,0.00,,,0.00,0,WeatherCatV1.15B25,2013-12-26 07:55:00,
2013-12-26 08:00:00,33.6,32.6,29.28,South,189,4.0,6.0,96,0.00,,,0.00,0,WeatherCatV1.15B25,2013-12-26 08:00:00,
2013-12-26 08:05:00,34.0,33.0,29.28,South,183,4.0,4.0,96,0.00,,,0.00,0,WeatherCatV1.15B25,2013-12-26 08:05:00,
2013-12-26 08:10:00,34.2,33.2,29.27,South,174,3.0,6.0,96,0.00,,,0.00,0,WeatherCatV1.15B25,2013-12-26 08:10:00,
2013-12-26 08:15:00,34.2,33.2,29.28,SSE,151,3.0,6.0,96,0.00,,,0.00,0,WeatherCatV1.15B25,2013-12-26 08:15:00,
2013-12-26 08:20:00,34.1,33.1,29.28,SE,145,2.0,2.0,96,0.00,,,0.00,0,WeatherCatV1.15B25,2013-12-26 08:20:00,
2013-12-26 08:25:00,34.1,32.8,29.28,SE,143,1.0,4.0,95,0.00,,,0.00,0,WeatherCatV1.15B25,2013-12-26 08:25:00,
2013-12-26 08:30:00,34.0,32.7,29.29,SSE,159,2.0,5.0,95,0.00,,,0.00,0,WeatherCatV1.15B25,2013-12-26 08:30:00,
2013-12-26 08:35:00,34.3,33.3,29.29,South,179,4.0,5.0,96,0.00,,,0.00,0,WeatherCatV1.15B25,2013-12-26 08:35:00,
2013-12-26 08:40:00,34.9,34.1,29.29,SSW,203,6.0,11.0,97,0.00,,,0.00,5,WeatherCatV1.15B25,2013-12-26 08:40:00,
2013-12-26 08:45:00,35.6,34.6,29.29,SSW,213,7.0,7.0,96,0.00,,,0.00,5,WeatherCatV1.15B25,2013-12-26 08:45:00,
2013-12-26 08:50:00,35.8,34.8,29.30,SW,217,7.0,9.0,96,0.00,,,0.00,18,WeatherCatV1.15B25,2013-12-26 08:50:00,
2013-12-26 08:55:00,36.0,35.0,29.30,SW,220,6.0,6.0,96,0.00,,,0.00,21,WeatherCatV1.15B25,2013-12-26 08:55:00,
2013-12-26 09:00:00,35.9,34.6,29.30,SSW,213,3.0,5.0,95,0.00,,,0.00,18,WeatherCatV1.15B25,2013-12-26 09:00:00,
2013-12-26 09:05:00,35.4,34.1,29.30,South,171,3.0,8.0,95,0.00,,,0.00,21,WeatherCatV1.15B25,2013-12-26 09:05:00,
2013-12-26 09:10:00,35.2,33.9,29.30,SSE,163,4.0,5.0,95,0.00,,,0.00,30,WeatherCatV1.15B25,2013-12-26 09:10:00,
2013-12-26 09:15:00,35.0,33.7,29.30,SSE,161,2.0,4.0,95,0.00,,,0.00,25,WeatherCatV1.15B25,2013-12-26 09:15:00,
2013-12-26 09:20:00,34.7,33.2,29.30,SSE,148,3.0,7.0,94,0.00,,,0.00,30,WeatherCatV1.15B25,2013-12-26 09:20:00,
2013-12-26 09:25:00,34.4,33.1,29.30,SE,137,5.0,6.0,95,0.00,,,0.00,39,WeatherCatV1.15B25,2013-12-26 09:25:00,
2013-12-26 09:30:00,34.5,33.2,29.30,SE,139,5.0,7.0,95,0.00,,,0.00,51,WeatherCatV1.15B25,2013-12-26 09:30:00,
2013-12-26 09:35:00,34.6,33.3,29.30,SE,146,4.0,0.0,95,0.00,,,0.00,46,WeatherCatV1.15B25,2013-12-26 09:35:00,
2013-12-26 09:40:00,34.8,33.5,29.29,SSE,149,2.0,5.0,95,0.00,,,0.00,53,WeatherCatV1.15B25,2013-12-26 09:40:00,
2013-12-26 09:45:00,35.1,33.8,29.29,SSE,159,2.0,8.0,95,0.00,,,0.00,65,WeatherCatV1.15B25,2013-12-26 09:45:00,
2013-12-26 09:50:00,35.6,34.6,29.28,SSE,167,5.0,10.0,96,0.00,,,0.00,88,WeatherCatV1.15B25,2013-12-26 09:50:00,
2013-12-26 09:55:00,36.1,35.1,29.29,South,173,7.0,8.0,96,0.00,,,0.00,95,WeatherCatV1.15B25,2013-12-26 09:55:00,
2013-12-26 10:00:00,36.5,35.2,29.29,South,180,6.0,10.0,95,0.00,,,0.00,91,WeatherCatV1.15B25,2013-12-26 10:00:00,
2013-12-26 10:05:00,36.8,35.5,29.29,South,179,7.0,9.0,95,0.00,,,0.00,97,WeatherCatV1.15B25,2013-12-26 10:05:00,
2013-12-26 10:10:00,36.9,35.6,29.30,South,174,7.0,10.0,95,0.00,,,0.00,95,WeatherCatV1.15B25,2013-12-26 10:10:00,
2013-12-26 10:15:00,37.1,35.5,29.29,SSE,167,7.0,7.0,94,0.00,,,0.00,90,WeatherCatV1.15B25,2013-12-26 10:15:00,
2013-12-26 10:20:00,37.2,35.6,29.28,South,171,6.0,8.0,94,0.00,,,0.00,111,WeatherCatV1.15B25,2013-12-26 10:20:00,
2013-12-26 10:25:00,37.4,35.8,29.30,SSE,162,6.0,9.0,94,0.00,,,0.00,120,WeatherCatV1.15B25,2013-12-26 10:25:00,
2013-12-26 10:30:00,37.5,35.9,29.30,SSE,166,7.0,12.0,94,0.00,,,0.00,135,WeatherCatV1.15B25,2013-12-26 10:30:00,
2013-12-26 10:35:00,37.8,36.2,29.30,SSE,167,7.0,10.0,94,0.00,,,0.00,132,WeatherCatV1.15B25,2013-12-26 10:35:00,
2013-12-26 10:40:00,38.1,36.3,29.29,South,172,7.0,8.0,93,0.00,,,0.00,132,WeatherCatV1.15B25,2013-12-26 10:40:00,
2013-12-26 10:45:00,38.4,36.6,29.29,South,169,7.0,7.0,93,0.00,,,0.00,137,WeatherCatV1.15B25,2013-12-26 10:45:00,
2013-12-26 10:50:00,38.8,37.0,29.29,South,172,7.0,9.0,93,0.00,,,0.00,158,WeatherCatV1.15B25,2013-12-26 10:50:00,
2013-12-26 10:55:00,39.1,37.0,29.29,South,170,7.0,7.0,92,0.00,,,0.00,153,WeatherCatV1.15B25,2013-12-26 10:55:00,
2013-12-26 11:00:00,39.4,37.3,29.30,SSE,168,7.0,7.0,92,0.00,,,0.00,149,WeatherCatV1.15B25,2013-12-26 11:00:00,
2013-12-26 11:05:00,39.7,37.3,29.30,SSE,159,7.0,9.0,91,0.00,,,0.00,127,WeatherCatV1.15B25,2013-12-26 11:05:00,
2013-12-26 11:10:00,39.9,37.5,29.30,SSE,162,7.0,9.0,91,0.00,,,0.00,151,WeatherCatV1.15B25,2013-12-26 11:10:00,
2013-12-26 11:15:00,40.0,37.3,29.31,SSE,161,5.0,6.0,90,0.00,,,0.00,37,WeatherCatV1.15B25,2013-12-26 11:15:00,
2013-12-26 11:20:00,39.7,37.0,29.31,SSE,156,5.0,9.0,90,0.00,,,0.00,127,WeatherCatV1.15B25,2013-12-26 11:20:00,
2013-12-26 11:25:00,39.6,37.2,29.31,SE,132,5.0,6.0,91,0.00,,,0.00,160,WeatherCatV1.15B25,2013-12-26 11:25:00,
2013-12-26 11:30:00,39.7,37.3,29.30,SE,127,5.0,11.0,91,0.00,,,0.00,142,WeatherCatV1.15B25,2013-12-26 11:30:00,
2013-12-26 11:35:00,39.9,37.5,29.30,SE,129,5.0,5.0,91,0.00,,,0.00,156,WeatherCatV1.15B25,2013-12-26 11:35:00,
2013-12-26 11:40:00,40.1,37.7,29.31,SE,140,3.0,5.0,91,0.00,,,0.00,160,WeatherCatV1.15B25,2013-12-26 11:40:00,
2013-12-26 11:45:00,40.4,37.7,29.30,SSE,148,3.0,5.0,90,0.00,,,0.00,165,WeatherCatV1.15B25,2013-12-26 11:45:00,
2013-12-26 11:50:00,40.6,37.9,29.30,SSE,148,3.0,3.0,90,0.00,,,0.00,172,WeatherCatV1.15B25,2013-12-26 11:50:00,
2013-12-26 11:55:00,40.9,38.2,29.30,SSE,153,2.0,4.0,90,0.00,,,0.00,178,WeatherCatV1.15B25,2013-12-26 11:55:00,
2013-12-26 12:00:00,41.2,38.2,29.30,SSE,155,2.0,4.0,89,0.00,,,0.00,178,WeatherCatV1.15B25,2013-12-26 12:00:00,
2013-12-26 12:05:00,41.3,38.3,29.30,SE,139,2.0,5.0,89,0.00,,,0.00,174,WeatherCatV1.15B25,2013-12-26 12:05:00,
2013-12-26 12:10:00,41.2,37.9,29.30,SE,135,2.0,5.0,88,0.00,,,0.00,176,WeatherCatV1.15B25,2013-12-26 12:10:00,
2013-12-26 12:15:00,41.4,38.4,29.30,SE,141,3.0,6.0,89,0.00,,,0.00,211,WeatherCatV1.15B25,2013-12-26 12:15:00,
2013-12-26 12:20:00,41.4,38.1,29.30,SE,136,3.0,5.0,88,0.00,,,0.00,209,WeatherCatV1.15B25,2013-12-26 12:20:00,
2013-12-26 12:25:00,41.5,38.2,29.30,SE,138,2.0,2.0,88,0.00,,,0.00,185,WeatherCatV1.15B25,2013-12-26 12:25:00,
2013-12-26 12:30:00,41.7,38.7,29.30,SSE,152,3.0,7.0,89,0.00,,,0.00,207,WeatherCatV1.15B25,2013-12-26 12:30:00,
2013-12-26 12:35:00,42.0,38.7,29.31,SSE,163,4.0,6.0,88,0.00,,,0.00,91,WeatherCatV1.15B25,2013-12-26 12:35:00,
2013-12-26 12:40:00,41.9,38.6,29.31,South,172,5.0,11.0,88,0.00,,,0.00,144,WeatherCatV1.15B25,2013-12-26 12:40:00,
2013-12-26 12:45:00,41.9,38.3,29.31,South,174,7.0,13.0,87,0.00,,,0.00,163,WeatherCatV1.15B25,2013-12-26 12:45:00,
2013-12-26 12:50:00,41.9,38.3,29.31,South,174,7.0,13.0,87,0.00,,,0.00,163,WeatherCatV1.15B25,2013-12-26 12:50:00,
2013-12-26 12:55:00,41.8,38.5,29.31,SSE,155,7.0,10.0,88,0.00,,,0.00,123,WeatherCatV1.15B25,2013-12-26 12:55:00,
2013-12-26 13:00:00,41.8,38.5,29.30,SSE,155,7.0,7.0,88,0.00,,,0.00,120,WeatherCatV1.15B25,2013-12-26 13:00:00,
2013-12-26 13:05:00,41.7,38.7,29.31,SSE,158,5.0,7.0,89,0.00,,,0.00,127,WeatherCatV1.15B25,2013-12-26 13:05:00,
2013-12-26 13:10:00,41.6,38.3,29.30,SE,142,4.0,7.0,88,0.00,,,0.00,113,WeatherCatV1.15B25,2013-12-26 13:10:00,
2013-12-26 13:15:00,41.4,38.1,29.30,SE,142,5.0,7.0,88,0.00,,,0.00,70,WeatherCatV1.15B25,2013-12-26 13:15:00,
2013-12-26 13:20:00,41.2,38.2,29.30,SSE,153,5.0,9.0,89,0.00,,,0.00,107,WeatherCatV1.15B25,2013-12-26 13:20:00,
2013-12-26 13:25:00,41.1,38.1,29.30,SSE,150,5.0,11.0,89,0.00,,,0.00,77,WeatherCatV1.15B25,2013-12-26 13:25:00,
2013-12-26 13:30:00,41.1,38.1,29.30,SSE,163,5.0,9.0,89,0.00,,,0.00,91,WeatherCatV1.15B25,2013-12-26 13:30:00,
2013-12-26 13:35:00,41.0,38.0,29.30,SSE,165,5.0,7.0,89,0.00,,,0.00,114,WeatherCatV1.15B25,2013-12-26 13:35:00,
2013-12-26 13:40:00,41.1,38.1,29.30,SSE,164,5.0,12.0,89,0.00,,,0.00,91,WeatherCatV1.15B25,2013-12-26 13:40:00,
2013-12-26 13:45:00,41.1,37.8,29.30,South,169,6.0,13.0,88,0.00,,,0.00,86,WeatherCatV1.15B25,2013-12-26 13:45:00,
2013-12-26 13:50:00,41.2,37.9,29.30,South,171,8.0,11.0,88,0.00,,,0.00,104,WeatherCatV1.15B25,2013-12-26 13:50:00,
2013-12-26 13:55:00,41.2,37.9,29.30,South,172,8.0,15.0,88,0.00,,,0.00,97,WeatherCatV1.15B25,2013-12-26 13:55:00,
2013-12-26 14:00:00,41.1,37.8,29.30,SSE,168,8.0,12.0,88,0.00,,,0.00,93,WeatherCatV1.15B25,2013-12-26 14:00:00,
2013-12-26 14:05:00,40.9,37.6,29.30,SSE,157,8.0,9.0,88,0.00,,,0.00,69,WeatherCatV1.15B25,2013-12-26 14:05:00,
2013-12-26 14:10:00,40.4,37.1,29.29,SSE,158,9.0,11.0,88,0.00,,,0.00,32,WeatherCatV1.15B25,2013-12-26 14:10:00,
2013-12-26 14:15:00,40.1,37.1,29.29,SSE,156,9.0,11.0,89,0.00,,,0.00,30,WeatherCatV1.15B25,2013-12-26 14:15:00,
2013-12-26 14:20:00,39.9,36.9,29.29,SSE,155,8.0,10.0,89,0.00,,,0.00,30,WeatherCatV1.15B25,2013-12-26 14:20:00,
2013-12-26 14:25:00,39.7,37.0,29.30,SSE,158,7.0,9.0,90,0.00,,,0.00,30,WeatherCatV1.15B25,2013-12-26 14:25:00,
2013-12-26 14:30:00,39.5,36.8,29.30,SSE,156,7.0,9.0,90,0.00,,,0.00,28,WeatherCatV1.15B25,2013-12-26 14:30:00,
2013-12-26 14:35:00,39.3,36.6,29.30,SE,145,6.0,8.0,90,0.00,,,0.00,28,WeatherCatV1.15B25,2013-12-26 14:35:00,
2013-12-26 14:40:00,39.2,36.5,29.30,SSE,147,5.0,8.0,90,0.00,,,0.00,21,WeatherCatV1.15B25,2013-12-26 14:40:00,
2013-12-26 14:45:00,39.1,36.4,29.30,SSE,151,4.0,5.0,90,0.00,,,0.00,18,WeatherCatV1.15B25,2013-12-26 14:45:00,
2013-12-26 14:50:00,38.8,36.1,29.30,SSE,156,4.0,7.0,90,0.00,,,0.00,21,WeatherCatV1.15B25,2013-12-26 14:50:00,
2013-12-26 14:55:00,38.6,36.2,29.30,SSE,148,5.0,6.0,91,0.00,,,0.00,18,WeatherCatV1.15B25,2013-12-26 14:55:00,
2013-12-26 15:00:00,38.3,35.9,29.30,SE,138,5.0,7.0,91,0.00,,,0.00,14,WeatherCatV1.15B25,2013-12-26 15:00:00,
2013-12-26 15:05:00,38.1,35.7,29.29,SE,139,5.0,7.0,91,0.00,,,0.00,12,WeatherCatV1.15B25,2013-12-26 15:05:00,
2013-12-26 15:10:00,37.9,35.5,29.29,SSE,150,6.0,6.0,91,0.00,,,0.00,16,WeatherCatV1.15B25,2013-12-26 15:10:00,
2013-12-26 15:15:00,37.8,35.7,29.29,SSE,153,6.0,8.0,92,0.00,,,0.00,9,WeatherCatV1.15B25,2013-12-26 15:15:00,
2013-12-26 15:20:00,37.5,35.4,29.29,SSE,153,5.0,10.0,92,0.00,,,0.00,7,WeatherCatV1.15B25,2013-12-26 15:20:00,
2013-12-26 15:25:00,37.2,35.1,29.30,SE,143,5.0,9.0,92,0.00,,,0.00,7,WeatherCatV1.15B25,2013-12-26 15:25:00,
2013-12-26 15:30:00,37.1,35.0,29.30,SE,143,5.0,7.0,92,0.00,,,0.00,5,WeatherCatV1.15B25,2013-12-26 15:30:00,
2013-12-26 15:35:00,37.0,34.9,29.30,SE,145,5.0,8.0,92,0.00,,,0.00,0,WeatherCatV1.15B25,2013-12-26 15:35:00,
2013-12-26 15:40:00,36.8,35.0,29.30,SSE,154,5.0,8.0,93,0.00,,,0.00,0,WeatherCatV1.15B25,2013-12-26 15:40:00,
2013-12-26 15:45:00,36.8,35.0,29.30,SSE,158,6.0,8.0,93,0.00,,,0.00,0,WeatherCatV1.15B25,2013-12-26 15:45:00,
2013-12-26 15:50:00,36.9,35.1,29.29,SSE,158,6.0,8.0,93,0.00,,,0.00,0,WeatherCatV1.15B25,2013-12-26 15:50:00,
2013-12-26 15:55:00,36.9,35.1,29.30,SSE,159,5.0,5.0,93,0.00,,,0.00,0,WeatherCatV1.15B25,2013-12-26 15:55:00,
2013-12-26 16:00:00,36.8,35.0,29.29,SSE,163,5.0,7.0,93,0.00,,,0.00,0,WeatherCatV1.15B25,2013-12-26 16:00:00,
2013-12-26 16:05:00,36.8,35.0,29.30,SSE,160,5.0,8.0,93,0.00,,,0.00,0,WeatherCatV1.15B25,2013-12-26 16:05:00,
2013-12-26 16:10:00,36.9,35.3,29.30,SSE,158,5.0,9.0,94,0.00,,,0.00,0,WeatherCatV1.15B25,2013-12-26 16:10:00,
2013-12-26 16:15:00,36.7,34.9,29.30,SSE,158,5.0,9.0,93,0.00,,,0.00,0,WeatherCatV1.15B25,2013-12-26 16:15:00,
2013-12-26 16:20:00,36.6,34.8,29.30,SSE,158,4.0,6.0,93,0.00,,,0.00,0,WeatherCatV1.15B25,2013-12-26 16:20:00,
2013-12-26 16:25:00,36.5,34.7,29.30,SSE,159,5.0,8.0,93,0.00,,,0.00,0,WeatherCatV1.15B25,2013-12-26 16:25:00,
2013-12-26 16:30:00,36.5,34.9,29.30,SSE,166,6.0,8.0,94,0.00,,,0.00,0,WeatherCatV1.15B25,2013-12-26 16:30:00,
2013-12-26 16:35:00,36.5,34.9,29.29,South,172,4.0,7.0,94,0.00,,,0.00,0,WeatherCatV1.15B25,2013-12-26 16:35:00,
2013-12-26 16:40:00,36.5,34.9,29.29,South,172,2.0,0.0,94,0.00,,,0.00,0,WeatherCatV1.15B25,2013-12-26 16:40:00,
2013-12-26 16:45:00,36.5,36.5,29.29,South,173,3.0,14.0,100,0.00,,,0.00,0,WeatherCatV1.15B25,2013-12-26 16:45:00,
2013-12-26 16:50:00,37.0,35.7,29.29,SSE,166,6.0,8.0,95,0.00,,,0.00,0,WeatherCatV1.15B25,2013-12-26 16:50:00,
2013-12-26 16:55:00,37.4,36.1,29.30,SSE,158,8.0,11.0,95,0.00,,,0.00,0,WeatherCatV1.15B25,2013-12-26 16:55:00,
2013-12-26 17:00:00,37.7,36.4,29.30,SSE,161,8.0,11.0,95,0.00,,,0.00,0,WeatherCatV1.15B25,2013-12-26 17:00:00,
2013-12-26 17:05:00,37.9,36.6,29.29,SSE,158,7.0,9.0,95,0.00,,,0.00,0,WeatherCatV1.15B25,2013-12-26 17:05:00,
2013-12-26 17:10:00,37.9,36.6,29.29,SE,146,5.0,8.0,95,0.00,,,0.00,0,WeatherCatV1.15B25,2013-12-26 17:10:00,
2013-12-26 17:15:00,37.8,36.2,29.29,SE,141,5.0,7.0,94,0.00,,,0.00,0,WeatherCatV1.15B25,2013-12-26 17:15:00,
2013-12-26 17:20:00,37.6,36.0,29.28,SE,129,5.0,5.0,94,0.00,,,0.00,0,WeatherCatV1.15B25,2013-12-26 17:20:00,
2013-12-26 17:25:00,37.6,36.0,29.27,SE,127,3.0,3.0,94,0.00,,,0.00,0,WeatherCatV1.15B25,2013-12-26 17:25:00,
2013-12-26 17:30:00,37.7,36.4,29.27,SE,125,3.0,6.0,95,0.00,,,0.00,0,WeatherCatV1.15B25,2013-12-26 17:30:00,
2013-12-26 17:35:00,37.7,36.4,29.27,SE,137,4.0,7.0,95,0.00,,,0.00,0,WeatherCatV1.15B25,2013-12-26 17:35:00,
2013-12-26 17:40:00,37.8,36.5,29.26,SE,137,6.0,11.0,95,0.00,,,0.00,0,WeatherCatV1.15B25,2013-12-26 17:40:00,
2013-12-26 17:45:00,37.8,36.5,29.25,SE,144,6.0,6.0,95,0.00,,,0.00,0,WeatherCatV1.15B25,2013-12-26 17:45:00,
2013-12-26 17:50:00,37.7,36.4,29.25,SE,137,4.0,6.0,95,0.00,,,0.00,0,WeatherCatV1.15B25,2013-12-26 17:50:00,
2013-12-26 17:55:00,37.7,36.4,29.25,SE,138,5.0,9.0,95,0.00,,,0.00,0,WeatherCatV1.15B25,2013-12-26 17:55:00,
2013-12-26 18:00:00,37.7,36.4,29.25,SE,142,5.0,7.0,95,0.00,,,0.00,0,WeatherCatV1.15B25,2013-12-26 18:00:00,
2013-12-26 18:11:00,37.9,36.6,29.25,SE,144,6.0,11.0,95,0.00,,,0.00,0,WeatherCatV1.15B25,2013-12-26 18:11:00,
2013-12-26 18:16:00,38.5,37.2,29.23,SE,130,8.0,15.0,95,0.00,,,0.01,0,WeatherCatV1.15B25,2013-12-26 18:16:00,
2013-12-26 18:21:00,38.6,37.3,29.23,ESE,121,8.0,12.0,95,0.00,,,0.01,0,WeatherCatV1.15B25,2013-12-26 18:21:00,
2013-12-26 18:28:00,38.6,37.3,29.22,SSE,159,9.0,12.0,95,0.00,,,0.01,0,WeatherCatV1.15B25,2013-12-26 18:28:00,
2013-12-26 18:33:00,38.6,37.3,29.22,SE,145,5.0,10.0,95,0.00,,,0.01,0,WeatherCatV1.15B25,2013-12-26 18:33:00,
2013-12-26 18:38:00,38.6,37.3,29.21,SE,127,8.0,13.0,95,0.00,,,0.01,0,WeatherCatV1.15B25,2013-12-26 18:38:00,
2013-12-26 18:43:00,38.6,37.3,29.21,SE,128,7.0,16.0,95,0.00,,,0.01,0,WeatherCatV1.15B25,2013-12-26 18:43:00,
2013-12-26 18:48:00,38.8,37.5,29.21,SE,124,8.0,14.0,95,0.00,,,0.01,0,WeatherCatV1.15B25,2013-12-26 18:48:00,
2013-12-26 18:53:00,38.9,37.6,29.21,SSE,153,8.0,11.0,95,0.00,,,0.01,0,WeatherCatV1.15B25,2013-12-26 18:53:00,
2013-12-26 18:58:00,39.0,37.7,29.20,SE,139,9.0,12.0,95,0.00,,,0.01,0,WeatherCatV1.15B25,2013-12-26 18:58:00,
2013-12-26 19:06:00,38.9,37.6,29.19,SE,133,4.0,11.0,95,0.00,,,0.01,0,WeatherCatV1.15B25,2013-12-26 19:06:00,
2013-12-26 19:11:00,38.9,37.6,29.18,SE,141,7.0,8.0,95,0.00,,,0.01,0,WeatherCatV1.15B25,2013-12-26 19:11:00,
2013-12-26 19:16:00,38.9,37.6,29.18,SE,143,7.0,9.0,95,0.00,,,0.01,0,WeatherCatV1.15B25,2013-12-26 19:16:00,
2013-12-26 19:21:00,39.1,37.8,29.17,SE,143,11.0,11.0,95,0.00,,,0.01,0,WeatherCatV1.15B25,2013-12-26 19:21:00,
2013-12-26 19:26:00,39.2,37.9,29.16,South,179,11.0,14.0,95,0.00,,,0.01,0,WeatherCatV1.15B25,2013-12-26 19:26:00,
2013-12-26 19:31:00,39.3,37.7,29.15,SSE,151,8.0,12.0,94,0.00,,,0.01,0,WeatherCatV1.15B25,2013-12-26 19:31:00,
2013-12-26 19:39:00,39.4,37.8,29.14,SSE,150,12.0,24.0,94,0.00,,,0.01,0,WeatherCatV1.15B25,2013-12-26 19:39:00,
2013-12-26 19:44:00,39.5,37.9,29.15,SSE,153,16.0,21.0,94,0.00,,,0.01,0,WeatherCatV1.15B25,2013-12-26 19:44:00,
2013-12-26 19:52:00,39.5,37.6,29.15,SSE,152,9.0,20.0,93,0.00,,,0.01,0,WeatherCatV1.15B25,2013-12-26 19:52:00,
2013-12-26 19:57:00,39.6,37.7,29.15,SSE,168,10.0,17.0,93,0.00,,,0.01,0,WeatherCatV1.15B25,2013-12-26 19:57:00,
2013-12-26 20:02:00,39.6,37.5,29.14,SE,135,12.0,17.0,92,0.00,,,0.01,0,WeatherCatV1.15B25,2013-12-26 20:02:00,
2013-12-26 20:07:00,39.5,37.4,29.14,SSE,157,13.0,15.0,92,0.00,,,0.01,0,WeatherCatV1.15B25,2013-12-26 20:07:00,
2013-12-26 20:12:00,39.4,37.3,29.13,SSE,148,8.0,13.0,92,0.00,,,0.01,0,WeatherCatV1.15B25,2013-12-26 20:12:00,
2013-12-26 20:17:00,39.3,37.2,29.13,SE,145,8.0,15.0,92,0.00,,,0.01,0,WeatherCatV1.15B25,2013-12-26 20:17:00,
2013-12-26 20:22:00,39.1,37.0,29.12,SE,131,6.0,14.0,92,0.00,,,0.01,0,WeatherCatV1.15B25,2013-12-26 20:22:00,
2013-12-26 20:27:00,39.0,36.9,29.11,South,169,8.0,14.0,92,0.00,,,0.01,0,WeatherCatV1.15B25,2013-12-26 20:27:00,
2013-12-26 20:32:00,39.0,36.6,29.10,SSE,157,9.0,17.0,91,0.00,,,0.01,0,WeatherCatV1.15B25,2013-12-26 20:32:00,
2013-12-26 20:37:00,39.1,36.7,29.10,SSE,163,12.0,17.0,91,0.00,,,0.01,0,WeatherCatV1.15B25,2013-12-26 20:37:00,
2013-12-26 20:42:00,39.1,36.7,29.09,SSE,167,15.0,20.0,91,0.00,,,0.01,0,WeatherCatV1.15B25,2013-12-26 20:42:00,
2013-12-26 20:47:00,39.1,36.4,29.09,SSE,152,9.0,14.0,90,0.00,,,0.01,0,WeatherCatV1.15B25,2013-12-26 20:47:00,
2013-12-26 20:52:00,39.1,36.4,29.07,SSE,168,13.0,17.0,90,0.00,,,0.01,0,WeatherCatV1.15B25,2013-12-26 20:52:00,
2013-12-26 20:57:00,39.1,36.4,29.07,SSE,154,14.0,24.0,90,0.00,,,0.01,0,WeatherCatV1.15B25,2013-12-26 20:57:00,
2013-12-26 21:02:00,39.1,36.4,29.06,SE,136,12.0,17.0,90,0.00,,,0.01,0,WeatherCatV1.15B25,2013-12-26 21:02:00,
2013-12-26 21:07:00,39.1,36.1,29.05,SE,142,19.0,23.0,89,0.00,,,0.01,0,WeatherCatV1.15B25,2013-12-26 21:07:00,
2013-12-26 21:12:00,39.2,36.2,29.03,South,171,22.0,22.0,89,0.00,,,0.01,0,WeatherCatV1.15B25,2013-12-26 21:12:00,
2013-12-26 21:17:00,39.4,36.4,29.03,SE,132,16.0,16.0,89,0.00,,,0.01,0,WeatherCatV1.15B25,2013-12-26 21:17:00,
2013-12-26 21:22:00,39.5,36.5,29.02,South,177,8.0,16.0,89,0.00,,,0.01,0,WeatherCatV1.15B25,2013-12-26 21:22:00,
2013-12-26 21:27:00,39.6,36.6,29.01,SSE,155,12.0,15.0,89,0.00,,,0.01,0,WeatherCatV1.15B25,2013-12-26 21:27:00,
2013-12-26 21:32:00,39.6,36.6,29.00,SSE,151,11.0,11.0,89,0.00,,,0.01,0,WeatherCatV1.15B25,2013-12-26 21:32:00,
2013-12-26 21:37:00,39.6,36.6,28.99,SSE,149,8.0,18.0,89,0.00,,,0.01,0,WeatherCatV1.15B25,2013-12-26 21:37:00,
2013-12-26 21:42:00,39.5,36.5,28.98,SSE,168,6.0,19.0,89,0.00,,,0.01,0,WeatherCatV1.15B25,2013-12-26 21:42:00,
2013-12-26 21:47:00,39.5,36.8,28.97,SSE,150,13.0,18.0,90,0.00,,,0.01,0,WeatherCatV1.15B25,2013-12-26 21:47:00,
2013-12-26 21:52:00,39.6,36.9,28.96,SE,139,20.0,22.0,90,0.00,,,0.01,0,WeatherCatV1.15B25,2013-12-26 21:52:00,
2013-12-26 21:57:00,39.9,37.2,28.94,SSE,160,12.0,32.0,90,0.00,,,0.01,0,WeatherCatV1.15B25,2013-12-26 21:57:00,
2013-12-26 22:03:00,40.3,37.6,28.93,SSE,166,21.0,27.0,90,0.00,,,0.01,0,WeatherCatV1.15B25,2013-12-26 22:03:00,
2013-12-26 22:08:00,40.7,37.4,28.93,South,173,20.0,28.0,88,0.00,,,0.01,0,WeatherCatV1.15B25,2013-12-26 22:08:00,
2013-12-26 22:13:00,40.9,37.6,28.92,SE,126,27.0,33.0,88,0.00,,,0.01,0,WeatherCatV1.15B25,2013-12-26 22:13:00,
2013-12-26 22:19:00,40.8,37.8,28.90,SSE,155,11.0,30.0,89,0.00,,,0.01,0,WeatherCatV1.15B25,2013-12-26 22:19:00,
2013-12-26 22:28:00,40.4,37.4,28.89,SSE,150,26.0,35.0,89,0.00,,,0.01,0,WeatherCatV1.15B25,2013-12-26 22:28:00,
2013-12-26 22:33:00,40.1,37.4,28.87,SSE,159,28.0,31.0,90,0.00,,,0.02,0,WeatherCatV1.15B25,2013-12-26 22:33:00,
2013-12-26 22:35:00,40.0,37.3,28.86,SSE,157,30.0,30.0,90,0.00,,,0.02,0,WeatherCatV1.15B25,2013-12-26 22:35:00,
2013-12-26 22:40:00,39.8,37.4,28.85,SSE,157,15.0,33.0,91,0.00,,,0.02,0,WeatherCatV1.15B25,2013-12-26 22:40:00,
2013-12-26 22:45:00,39.5,37.4,28.83,SE,130,23.0,33.0,92,0.04,,,0.02,0,WeatherCatV1.15B25,2013-12-26 22:45:00,
2013-12-26 22:50:00,39.2,37.1,28.82,SSE,168,17.0,39.0,92,0.13,,,0.03,0,WeatherCatV1.15B25,2013-12-26 22:50:00,
2013-12-26 22:55:00,38.9,36.8,28.82,SE,138,24.0,33.0,92,0.06,,,0.04,0,WeatherCatV1.15B25,2013-12-26 22:55:00,
2013-12-26 23:00:00,38.8,37.0,28.80,South,182,28.0,34.0,93,0.06,,,0.04,0,WeatherCatV1.15B25,2013-12-26 23:00:00,
2013-12-26 23:05:00,38.7,36.9,28.80,SE,136,15.0,33.0,93,0.05,,,0.05,0,WeatherCatV1.15B25,2013-12-26 23:05:00,
2013-12-26 23:10:00,38.6,36.8,28.78,SSE,155,22.0,35.0,93,0.05,,,0.05,0,WeatherCatV1.15B25,2013-12-26 23:10:00,
2013-12-26 23:16:00,38.4,36.6,28.78,SSE,150,23.0,38.0,93,0.04,,,0.05,0,WeatherCatV1.15B25,2013-12-26 23:16:00,
2013-12-26 23:22:00,38.3,36.7,28.77,SE,145,26.0,35.0,94,0.11,,,0.06,0,WeatherCatV1.15B25,2013-12-26 23:22:00,
2013-12-26 23:27:00,38.2,36.6,28.76,SSE,168,22.0,34.0,94,0.10,,,0.07,0,WeatherCatV1.15B25,2013-12-26 23:27:00,
2013-12-26 23:32:00,38.0,36.4,28.75,South,169,24.0,26.0,94,0.14,,,0.08,0,WeatherCatV1.15B25,2013-12-26 23:32:00,
2013-12-26 23:36:00,38.0,36.4,28.73,South,169,23.0,32.0,94,0.11,,,0.09,0,WeatherCatV1.15B25,2013-12-26 23:36:00,
2013-12-26 23:42:00,38.2,36.9,28.73,SE,134,18.0,23.0,95,0.08,,,0.09,0,WeatherCatV1.15B25,2013-12-26 23:42:00,
2013-12-26 23:47:00,38.3,37.0,28.72,SSE,161,14.0,25.0,95,0.08,,,0.10,0,WeatherCatV1.15B25,2013-12-26 23:47:00,
2013-12-26 23:52:00,38.4,37.1,28.71,SSE,167,15.0,21.0,95,0.08,,,0.11,0,WeatherCatV1.15B25,2013-12-26 23:52:00,
2013-12-26 23:53:00,38.5,37.2,28.71,SSE,165,18.0,21.0,95,0.08,,,0.11,0,WeatherCatV1.15B25,2013-12-26 23:53:00,